Time;durP1;ratioP1;P1;durP2;ratioP2;P2;SDS_P1;SDS_P2;PMS_P1;PMS_P2;Temp;Humidity;BMP_temperature;BMP_pressure;BME280_temperature;BME280_humidity;BME280_pressure;Samples;Min_cycle;Max_cycle;Signal;HPM_P1;HPM_P2
2023/05/12 00:02:00;;;;;;;5.60;5.20;;;12.90;99.90;;;;;;6140650;23;20206;-73
2023/05/12 00:04:26;;;;;;;5.85;5.45;;;12.80;99.90;;;;;;6139878;23;20451;-72
2023/05/12 00:06:55;;;;;;;6.32;5.82;;;12.80;99.90;;;;;;6146766;23;20194;-72
2023/05/12 00:09:22;;;;;;;7.15;6.65;;;12.80;99.90;;;;;;6143173;23;20239;-73
2023/05/12 00:11:49;;;;;;;6.57;6.03;;;12.80;99.90;;;;;;6146985;23;20298;-72
2023/05/12 00:14:16;;;;;;;7.28;6.68;;;12.80;99.90;;;;;;6150101;23;20191;-72
2023/05/12 00:16:43;;;;;;;7.10;6.55;;;12.70;99.90;;;;;;6145979;23;20235;-72
2023/05/12 00:19:10;;;;;;;6.63;6.13;;;12.70;99.90;;;;;;6135278;23;20211;-72
2023/05/12 00:21:37;;;;;;;8.23;7.63;;;12.70;99.90;;;;;;6145752;23;20241;-72
2023/05/12 00:24:07;;;;;;;8.43;7.80;;;12.60;99.90;;;;;;6138962;23;20189;-72
2023/05/12 00:26:34;;;;;;;9.20;8.43;;;12.60;99.90;;;;;;6145339;23;20276;-72
2023/05/12 00:29:01;;;;;;;9.32;8.63;;;12.50;99.90;;;;;;6143412;23;20197;-72
2023/05/12 00:31:29;;;;;;;9.68;8.85;;;12.50;99.90;;;;;;6139869;23;20206;-72
2023/05/12 00:33:56;;;;;;;9.80;8.90;;;12.50;99.90;;;;;;6145114;23;20286;-73
2023/05/12 00:36:24;;;;;;;8.90;8.30;;;12.40;99.90;;;;;;6138545;23;20220;-72
2023/05/12 00:38:51;;;;;;;10.02;9.25;;;12.40;99.90;;;;;;6147655;23;20187;-72
2023/05/12 00:41:19;;;;;;;10.00;9.30;;;12.30;99.90;;;;;;6140273;23;20214;-72
2023/05/12 00:43:46;;;;;;;10.50;9.70;;;12.30;99.90;;;;;;6138453;23;20198;-72
2023/05/12 00:46:14;;;;;;;9.90;9.10;;;12.30;99.90;;;;;;6139797;23;20215;-72
2023/05/12 00:48:41;;;;;;;9.45;8.75;;;12.30;99.90;;;;;;6147417;23;20554;-72
2023/05/12 00:51:08;;;;;;;8.93;8.23;;;12.20;99.90;;;;;;6144655;23;20682;-72
2023/05/12 00:53:35;;;;;;;10.20;9.40;;;12.20;99.90;;;;;;6147014;23;20187;-72
2023/05/12 00:56:03;;;;;;;10.55;9.70;;;12.20;99.90;;;;;;6148609;23;20281;-72
2023/05/12 00:58:31;;;;;;;10.63;9.82;;;12.20;99.90;;;;;;6145573;23;20187;-72
2023/05/12 01:00:59;;;;;;;10.23;9.30;;;12.20;99.90;;;;;;6143317;23;20226;-72
2023/05/12 01:03:26;;;;;;;10.50;9.60;;;12.30;99.90;;;;;;6146947;23;20220;-72
2023/05/12 01:06:00;;;;;;;11.02;10.23;;;12.50;99.90;;;;;;6135545;23;20235;-72
2023/05/12 01:08:29;;;;;;;10.50;9.70;;;12.30;99.90;;;;;;6137897;23;20236;-72
2023/05/12 01:10:56;;;;;;;10.85;10.05;;;12.30;99.90;;;;;;6131920;23;20566;-72
2023/05/12 01:13:23;;;;;;;10.93;10.02;;;12.30;99.90;;;;;;6146103;23;20235;-72
2023/05/12 01:15:53;;;;;;;10.40;9.60;;;12.30;99.90;;;;;;6144662;23;20182;-72
2023/05/12 01:18:21;;;;;;;9.88;9.07;;;12.30;99.90;;;;;;6140492;23;20269;-72
2023/05/12 01:20:48;;;;;;;10.25;9.35;;;12.30;99.90;;;;;;6138235;23;20232;-72
2023/05/12 01:23:19;;;;;;;10.00;9.30;;;12.30;99.90;;;;;;6143974;23;20228;-72
2023/05/12 01:25:48;;;;;;;10.60;9.50;;;12.30;99.90;;;;;;6145921;23;20199;-72
2023/05/12 01:28:17;;;;;;;9.52;8.82;;;12.30;99.90;;;;;;6145565;23;20214;-72
2023/05/12 01:30:45;;;;;;;11.23;10.13;;;12.30;99.90;;;;;;6144146;23;20206;-72
2023/05/12 01:33:12;;;;;;;10.20;9.32;;;12.30;99.90;;;;;;6134895;23;20578;-72
2023/05/12 01:35:39;;;;;;;10.65;9.85;;;12.30;99.90;;;;;;6139336;23;20282;-73
2023/05/12 01:38:06;;;;;;;12.48;11.50;;;12.30;99.90;;;;;;6145550;23;20183;-72
2023/05/12 01:40:33;;;;;;;11.27;10.38;;;12.30;99.90;;;;;;6138335;23;20254;-72
2023/05/12 01:43:00;;;;;;;9.75;8.95;;;12.30;99.90;;;;;;6133908;23;20565;-72
2023/05/12 01:45:28;;;;;;;9.98;9.10;;;12.30;99.90;;;;;;6140237;23;20197;-72
2023/05/12 01:47:55;;;;;;;9.50;8.80;;;12.30;99.90;;;;;;6141139;23;20219;-72
2023/05/12 01:50:22;;;;;;;10.27;9.48;;;12.30;99.90;;;;;;6138576;23;20226;-73
2023/05/12 01:52:49;;;;;;;9.30;8.70;;;12.30;99.90;;;;;;6125128;23;20727;-72
2023/05/12 01:55:16;;;;;;;8.20;7.70;;;12.30;99.90;;;;;;6131658;23;20191;-72
2023/05/12 01:57:43;;;;;;;8.52;7.82;;;12.30;99.90;;;;;;6146838;23;20240;-72
2023/05/12 02:00:11;;;;;;;8.60;7.90;;;12.30;99.90;;;;;;6142712;23;20226;-72
2023/05/12 02:02:40;;;;;;;8.73;8.10;;;12.30;99.90;;;;;;6137679;23;20653;-73
2023/05/12 02:05:08;;;;;;;8.55;7.85;;;12.30;99.90;;;;;;6145712;23;20194;-72
2023/05/12 02:07:35;;;;;;;8.80;8.00;;;12.30;99.90;;;;;;6144373;23;20191;-72
2023/05/12 02:10:02;;;;;;;7.82;7.22;;;12.30;99.90;;;;;;6134086;23;20193;-72
2023/05/12 02:12:29;;;;;;;7.70;7.10;;;12.30;99.90;;;;;;6141159;23;20191;-72
2023/05/12 02:14:56;;;;;;;7.95;7.35;;;12.30;99.90;;;;;;6145276;23;20210;-72
2023/05/12 02:17:24;;;;;;;7.93;7.32;;;12.20;99.90;;;;;;6144520;23;20191;-72
2023/05/12 02:19:52;;;;;;;9.70;8.95;;;12.20;99.90;;;;;;6146089;23;20581;-72
2023/05/12 02:22:19;;;;;;;8.98;8.18;;;12.20;99.90;;;;;;6142198;23;20190;-72
2023/05/12 02:24:46;;;;;;;8.80;7.97;;;12.30;99.90;;;;;;6145573;23;20222;-73
2023/05/12 02:27:13;;;;;;;8.75;8.15;;;12.30;99.90;;;;;;6139710;23;20636;-72
2023/05/12 02:29:40;;;;;;;8.68;7.90;;;12.20;99.90;;;;;;6136425;23;20198;-72
2023/05/12 02:32:07;;;;;;;8.15;7.55;;;12.20;99.90;;;;;;6143846;23;20190;-72
2023/05/12 02:34:34;;;;;;;8.18;7.47;;;12.20;99.90;;;;;;6143849;23;20294;-72
2023/05/12 02:37:03;;;;;;;9.60;8.90;;;12.20;99.90;;;;;;6146378;23;20218;-72
2023/05/12 02:39:30;;;;;;;10.18;9.38;;;12.20;99.90;;;;;;6149119;23;20195;-72
2023/05/12 02:41:57;;;;;;;11.25;10.15;;;12.20;99.90;;;;;;6147265;23;20225;-72
2023/05/12 02:44:24;;;;;;;11.82;10.82;;;12.20;99.90;;;;;;6142936;23;20290;-72
2023/05/12 02:46:51;;;;;;;12.18;11.05;;;12.20;99.90;;;;;;6120195;23;20269;-72
2023/05/12 02:49:18;;;;;;;13.82;12.63;;;12.20;99.90;;;;;;6130931;23;20191;-72
2023/05/12 02:51:47;;;;;;;11.80;10.75;;;12.20;99.90;;;;;;6146754;23;20709;-72
2023/05/12 02:54:15;;;;;;;13.50;12.30;;;12.20;99.90;;;;;;6146738;23;20186;-72
2023/05/12 02:56:42;;;;;;;12.55;11.45;;;12.20;99.90;;;;;;6148471;23;20197;-72
2023/05/12 02:59:09;;;;;;;15.15;13.18;;;12.20;99.90;;;;;;6147859;23;20203;-72
2023/05/12 03:01:36;;;;;;;14.85;13.45;;;12.20;99.90;;;;;;6147359;23;20223;-72
2023/05/12 03:04:04;;;;;;;13.80;12.20;;;12.20;99.90;;;;;;6145080;23;20225;-72
2023/05/12 03:06:31;;;;;;;13.40;12.20;;;12.30;99.90;;;;;;6146499;23;20222;-72
2023/05/12 03:08:58;;;;;;;12.63;11.52;;;12.30;99.90;;;;;;6146800;23;20195;-72
2023/05/12 03:11:27;;;;;;;12.68;11.55;;;12.30;99.90;;;;;;6145938;23;20208;-72
2023/05/12 03:13:54;;;;;;;13.00;11.70;;;12.30;99.90;;;;;;6145252;23;20277;-72
2023/05/12 03:16:20;;;;;;;13.65;12.45;;;12.30;99.90;;;;;;6144319;23;20273;-72
2023/05/12 03:18:48;;;;;;;13.27;12.18;;;12.30;99.90;;;;;;6148445;23;20646;-73
2023/05/12 03:21:14;;;;;;;13.75;12.30;;;12.30;99.90;;;;;;6137936;23;20297;-72
2023/05/12 03:23:41;;;;;;;13.85;12.55;;;12.30;99.90;;;;;;6137104;23;20266;-72
2023/05/12 03:26:09;;;;;;;13.90;12.65;;;12.30;99.90;;;;;;6136020;23;20237;-72
2023/05/12 03:28:37;;;;;;;12.80;11.70;;;12.30;99.90;;;;;;6140304;23;20270;-73
2023/05/12 03:31:04;;;;;;;12.43;11.25;;;12.30;99.90;;;;;;6141335;23;20774;-72
2023/05/12 03:33:31;;;;;;;12.65;11.55;;;12.30;99.90;;;;;;6133123;23;20752;-72
2023/05/12 03:35:58;;;;;;;13.75;12.55;;;12.30;99.90;;;;;;6138276;23;20539;-72
2023/05/12 03:38:25;;;;;;;12.60;11.52;;;12.20;99.90;;;;;;6143530;23;20186;-72
2023/05/12 03:41:03;;;;;;;12.98;11.77;;;12.20;99.90;;;;;;6140892;23;20232;-72
2023/05/12 03:43:30;;;;;;;13.57;12.38;;;12.20;99.90;;;;;;6141945;23;20273;-72
2023/05/12 03:45:59;;;;;;;13.75;12.30;;;12.10;99.90;;;;;;6143507;23;20222;-72
2023/05/12 03:48:26;;;;;;;15.40;13.80;;;12.10;99.90;;;;;;6148248;23;20183;-73
2023/05/12 03:50:53;;;;;;;12.98;11.70;;;12.10;99.90;;;;;;6145826;23;20734;-72
2023/05/12 03:53:20;;;;;;;12.90;11.80;;;12.10;99.90;;;;;;6128162;23;20256;-72
2023/05/12 03:55:47;;;;;;;13.68;12.48;;;12.10;99.90;;;;;;6136190;23;20215;-73
2023/05/12 03:58:14;;;;;;;13.57;12.38;;;12.10;99.90;;;;;;6142918;23;20266;-72
2023/05/12 04:00:42;;;;;;;13.75;12.40;;;12.10;99.90;;;;;;6132223;23;20540;-72
2023/05/12 04:03:10;;;;;;;12.02;10.98;;;12.40;99.90;;;;;;6143989;23;20191;-72
2023/05/12 04:05:38;;;;;;;12.00;11.00;;;12.10;99.90;;;;;;6145219;23;20285;-72
2023/05/12 04:08:05;;;;;;;12.80;11.70;;;12.10;99.90;;;;;;6144465;23;20194;-73
2023/05/12 04:10:32;;;;;;;12.20;11.10;;;12.10;99.90;;;;;;6144189;23;20218;-72
2023/05/12 04:12:59;;;;;;;13.00;11.88;;;12.10;99.90;;;;;;6140425;23;20198;-72
2023/05/12 04:15:26;;;;;;;13.63;12.32;;;12.10;99.90;;;;;;6142909;23;20193;-72
2023/05/12 04:17:53;;;;;;;13.80;12.60;;;12.10;99.90;;;;;;6135422;23;20186;-73
2023/05/12 04:20:22;;;;;;;12.20;11.20;;;12.10;99.90;;;;;;6135398;23;20240;-73
2023/05/12 04:22:50;;;;;;;11.38;10.48;;;12.40;99.90;;;;;;6144492;23;20178;-73
2023/05/12 04:25:17;;;;;;;11.88;10.68;;;12.20;99.90;;;;;;6143833;23;20187;-73
2023/05/12 04:27:44;;;;;;;12.45;11.25;;;12.20;99.90;;;;;;6146456;23;20214;-74
2023/05/12 04:30:11;;;;;;;11.23;10.18;;;12.20;99.90;;;;;;6146421;23;20919;-73
2023/05/12 04:32:38;;;;;;;12.23;11.18;;;12.20;99.90;;;;;;6140726;23;20554;-73
2023/05/12 04:35:06;;;;;;;11.57;10.57;;;12.50;99.90;;;;;;6142817;23;20266;-74
2023/05/12 04:37:34;;;;;;;12.88;11.80;;;12.30;99.90;;;;;;6143248;23;20187;-73
2023/05/12 04:40:01;;;;;;;11.27;10.35;;;12.30;99.90;;;;;;6144093;23;20630;-74
2023/05/12 04:42:28;;;;;;;11.30;10.40;;;12.40;99.90;;;;;;6141863;23;20199;-73
2023/05/12 04:44:55;;;;;;;11.35;10.35;;;12.40;99.90;;;;;;6141541;23;20627;-74
2023/05/12 04:47:22;;;;;;;10.60;9.60;;;12.40;99.90;;;;;;6119357;23;20284;-74
2023/05/12 04:49:49;;;;;;;6.67;6.13;;;12.40;99.90;;;;;;6113600;23;20198;-79
2023/05/12 04:52:17;;;;;;;10.90;10.00;;;12.50;99.90;;;;;;6103224;23;20445;-79
2023/05/12 04:54:45;;;;;;;11.00;10.10;;;12.50;99.90;;;;;;6119068;23;20188;-79
2023/05/12 04:57:12;;;;;;;11.03;10.13;;;12.60;99.90;;;;;;6103213;23;21670;-79
2023/05/12 04:59:41;;;;;;;12.30;11.30;;;12.60;99.90;;;;;;6107770;23;20442;-80
2023/05/12 05:02:08;;;;;;;11.17;10.27;;;12.60;99.90;;;;;;6116122;23;20467;-84
2023/05/12 05:04:35;;;;;;;11.30;10.40;;;12.60;99.90;;;;;;6120583;23;20579;-83
2023/05/12 05:07:02;;;;;;;11.37;10.37;;;12.70;99.90;;;;;;6123877;23;20918;-83
2023/05/12 05:09:29;;;;;;;10.50;9.70;;;12.70;99.90;;;;;;6114856;23;21237;-83
2023/05/12 05:11:58;;;;;;;10.50;9.63;;;12.70;99.90;;;;;;6122877;23;20452;-83
2023/05/12 05:14:25;;;;;;;10.03;9.23;;;12.80;99.90;;;;;;6134108;23;20516;-83
2023/05/12 05:16:53;;;;;;;10.70;9.80;;;12.80;99.90;;;;;;6112773;23;20437;-82
2023/05/12 05:19:20;;;;;;;10.03;9.13;;;12.80;99.90;;;;;;6120835;23;20516;-73
2023/05/12 05:21:47;;;;;;;9.70;8.90;;;12.80;99.90;;;;;;6140174;23;20468;-71
2023/05/12 05:24:14;;;;;;;9.80;9.10;;;12.80;99.90;;;;;;6148637;23;20456;-71
2023/05/12 05:26:41;;;;;;;9.43;8.73;;;12.90;99.90;;;;;;6145564;23;20436;-71
2023/05/12 05:29:09;;;;;;;9.53;8.73;;;12.90;99.90;;;;;;6136927;23;21020;-71
2023/05/12 05:31:37;;;;;;;10.03;9.13;;;12.90;99.90;;;;;;6098537;23;20525;-71
2023/05/12 05:34:04;;;;;;;9.37;8.60;;;12.90;99.90;;;;;;6115229;23;20430;-72
2023/05/12 05:36:32;;;;;;;10.43;9.40;;;13.00;99.90;;;;;;6129647;23;20559;-72
2023/05/12 05:38:59;;;;;;;9.50;8.80;;;13.00;99.90;;;;;;6118159;23;20433;-72
2023/05/12 05:41:26;;;;;;;10.10;9.20;;;13.00;99.90;;;;;;6116145;23;20509;-71
2023/05/12 05:43:53;;;;;;;9.37;8.63;;;13.00;99.90;;;;;;6120815;23;20518;-71
2023/05/12 05:46:21;;;;;;;9.60;8.80;;;13.00;99.90;;;;;;6115194;23;20490;-72
2023/05/12 05:48:48;;;;;;;10.00;9.20;;;13.10;99.90;;;;;;6127887;23;20520;-71
2023/05/12 05:51:16;;;;;;;9.30;8.60;;;13.10;99.90;;;;;;6140823;23;20511;-71
2023/05/12 05:53:43;;;;;;;10.43;9.60;;;13.10;99.90;;;;;;6130031;23;20430;-71
2023/05/12 05:56:10;;;;;;;9.77;9.07;;;13.10;99.90;;;;;;6125393;23;21515;-71
2023/05/12 05:58:37;;;;;;;10.13;9.33;;;13.00;99.90;;;;;;6130119;23;20493;-71
2023/05/12 06:01:04;;;;;;;9.70;8.90;;;13.00;99.90;;;;;;6129940;23;20492;-71
2023/05/12 06:03:32;;;;;;;11.10;10.23;;;13.00;99.90;;;;;;6151379;23;20770;-72
2023/05/12 06:06:00;;;;;;;11.13;10.23;;;13.00;99.90;;;;;;6137374;23;20433;-72
2023/05/12 06:08:27;;;;;;;10.73;9.80;;;13.00;99.90;;;;;;6131756;23;20183;-71
2023/05/12 06:10:54;;;;;;;11.80;10.60;;;13.00;99.90;;;;;;6132311;23;20956;-71
2023/05/12 06:13:21;;;;;;;11.50;10.43;;;12.90;99.90;;;;;;6127920;23;20171;-71
2023/05/12 06:15:48;;;;;;;11.35;10.45;;;12.90;99.90;;;;;;6138412;23;20178;-71
2023/05/12 06:18:15;;;;;;;11.68;10.63;;;12.90;99.90;;;;;;6134930;23;20189;-71
2023/05/12 06:20:43;;;;;;;10.88;10.02;;;12.90;99.90;;;;;;6142436;23;20310;-71
2023/05/12 06:23:10;;;;;;;11.83;10.87;;;12.90;99.90;;;;;;6119694;23;20184;-71
2023/05/12 06:25:38;;;;;;;12.05;11.15;;;12.90;99.90;;;;;;6127077;23;20444;-71
2023/05/12 06:28:05;;;;;;;10.70;9.90;;;12.90;99.90;;;;;;6129961;23;20752;-71
2023/05/12 06:30:33;;;;;;;10.98;10.07;;;12.90;99.90;;;;;;6127343;23;20216;-71
2023/05/12 06:33:00;;;;;;;10.88;10.07;;;12.90;99.90;;;;;;6125181;23;20191;-71
2023/05/12 06:35:28;;;;;;;10.52;9.60;;;12.90;99.90;;;;;;6119848;23;20179;-71
2023/05/12 06:37:56;;;;;;;11.48;10.55;;;12.90;99.90;;;;;;6130960;23;20266;-71
2023/05/12 06:40:23;;;;;;;10.32;9.52;;;12.90;99.90;;;;;;6140701;23;21309;-71
2023/05/12 06:42:50;;;;;;;10.68;9.85;;;13.00;99.90;;;;;;6141763;23;20697;-71
2023/05/12 06:45:17;;;;;;;10.00;9.20;;;13.00;99.90;;;;;;6142199;23;20185;-71
2023/05/12 06:47:44;;;;;;;10.50;9.70;;;13.00;99.90;;;;;;6131284;23;20448;-71
2023/05/12 06:50:11;;;;;;;9.73;9.03;;;13.10;99.90;;;;;;6137801;23;20460;-72
2023/05/12 06:52:38;;;;;;;10.30;9.40;;;13.20;99.90;;;;;;6148789;23;20739;-71
2023/05/12 06:55:07;;;;;;;9.88;8.98;;;13.20;99.90;;;;;;6148582;23;20450;-71
2023/05/12 06:57:34;;;;;;;9.50;8.80;;;13.30;99.90;;;;;;6136481;23;20647;-71
2023/05/12 07:00:02;;;;;;;8.70;7.97;;;13.30;99.90;;;;;;6135513;23;20456;-73
2023/05/12 07:02:29;;;;;;;9.40;8.60;;;13.20;99.90;;;;;;6144315;23;20297;-71
2023/05/12 07:04:56;;;;;;;8.47;7.63;;;13.20;99.90;;;;;;6150385;23;20507;-71
2023/05/12 07:07:23;;;;;;;9.93;9.03;;;13.20;99.90;;;;;;6138882;23;20955;-71
2023/05/12 07:09:50;;;;;;;9.67;8.97;;;13.20;99.90;;;;;;6128841;23;20468;-71
2023/05/12 07:12:19;;;;;;;10.03;9.13;;;13.20;99.90;;;;;;6131743;23;20862;-71
2023/05/12 07:14:45;;;;;;;9.27;8.57;;;13.30;99.90;;;;;;6142590;23;20524;-71
2023/05/12 07:17:12;;;;;;;8.97;8.27;;;13.40;99.90;;;;;;6128564;23;20209;-71
2023/05/12 07:19:40;;;;;;;9.10;8.50;;;13.50;99.90;;;;;;6138093;23;20472;-71
2023/05/12 07:22:06;;;;;;;8.00;7.40;;;13.70;99.90;;;;;;6140414;23;20967;-71
2023/05/12 07:24:33;;;;;;;8.00;7.40;;;13.90;99.90;;;;;;6141725;23;20520;-71
2023/05/12 07:27:01;;;;;;;7.37;6.77;;;14.00;99.90;;;;;;6148625;23;20479;-71
2023/05/12 07:29:29;;;;;;;8.00;7.37;;;14.10;99.90;;;;;;6151435;23;20434;-71
2023/05/12 07:31:56;;;;;;;6.97;6.57;;;14.20;99.90;;;;;;6138424;23;20432;-71
2023/05/12 07:34:23;;;;;;;6.90;6.40;;;14.30;99.90;;;;;;6135972;23;20503;-71
2023/05/12 07:36:50;;;;;;;6.73;6.23;;;14.40;99.90;;;;;;6137989;23;20955;-72
2023/05/12 07:39:22;;;;;;;5.67;5.27;;;14.50;99.90;;;;;;6136466;23;20443;-71
2023/05/12 07:41:49;;;;;;;6.87;6.33;;;14.80;99.90;;;;;;6135442;23;20463;-71
2023/05/12 07:44:16;;;;;;;5.30;5.00;;;14.90;99.90;;;;;;6157193;23;20447;-71
2023/05/12 07:46:45;;;;;;;5.83;5.43;;;15.10;99.90;;;;;;6142137;23;20433;-71
2023/05/12 07:49:12;;;;;;;5.53;5.20;;;15.20;99.90;;;;;;6142573;23;20420;-72
2023/05/12 07:51:39;;;;;;;5.47;5.17;;;15.30;99.90;;;;;;6140347;23;20439;-71
2023/05/12 07:54:06;;;;;;;4.80;4.50;;;15.40;99.90;;;;;;6133374;23;20458;-71
2023/05/12 07:56:33;;;;;;;4.40;4.10;;;15.40;99.90;;;;;;6153275;23;20535;-71
2023/05/12 07:59:00;;;;;;;3.90;3.60;;;15.50;99.90;;;;;;6138803;23;20443;-71
2023/05/12 08:01:27;;;;;;;3.97;3.70;;;15.60;99.90;;;;;;6163876;23;20467;-72
2023/05/12 08:03:56;;;;;;;4.80;4.50;;;15.80;99.90;;;;;;6142269;23;20476;-72
2023/05/12 08:06:23;;;;;;;5.93;5.50;;;15.90;99.90;;;;;;6138698;23;20475;-72
2023/05/12 08:08:50;;;;;;;5.70;5.20;;;16.00;99.90;;;;;;6151837;23;20437;-72
2023/05/12 08:11:17;;;;;;;5.53;5.13;;;16.10;99.90;;;;;;6143795;23;20456;-71
2023/05/12 08:13:44;;;;;;;6.33;5.93;;;15.90;99.90;;;;;;6147859;23;20456;-72
2023/05/12 08:16:11;;;;;;;6.40;5.90;;;16.00;99.90;;;;;;6145750;23;20466;-71
2023/05/12 08:18:38;;;;;;;5.60;5.20;;;16.10;99.90;;;;;;6117711;23;20444;-72
2023/05/12 08:21:07;;;;;;;6.90;6.40;;;16.30;99.90;;;;;;6130348;23;20449;-71
2023/05/12 08:23:36;;;;;;;6.13;5.73;;;16.50;99.90;;;;;;6139355;23;20943;-72
2023/05/12 08:26:04;;;;;;;6.37;5.97;;;16.70;99.90;;;;;;6139462;23;20541;-72
2023/05/12 08:28:31;;;;;;;6.20;5.80;;;16.70;99.90;;;;;;6142418;23;20519;-72
2023/05/12 08:30:58;;;;;;;6.00;5.60;;;16.70;99.90;;;;;;6147495;23;20456;-72
2023/05/12 08:33:25;;;;;;;6.50;6.10;;;16.60;99.90;;;;;;6132806;23;20429;-72
2023/05/12 08:35:52;;;;;;;5.90;5.50;;;16.50;99.90;;;;;;6114591;23;20441;-71
2023/05/12 08:38:21;;;;;;;6.47;5.97;;;16.40;99.90;;;;;;6132334;23;20819;-71
2023/05/12 08:41:07;;;;;;;5.87;5.47;;;16.50;99.90;;;;;;6122618;23;20452;-71
2023/05/12 08:43:41;;;;;;;6.30;5.80;;;16.70;99.90;;;;;;6132361;23;20465;-72
2023/05/12 08:46:09;;;;;;;5.80;5.40;;;16.70;99.90;;;;;;6135473;23;20429;-72
2023/05/12 08:48:38;;;;;;;5.97;5.47;;;16.70;99.90;;;;;;6125152;23;20852;-72
2023/05/12 08:51:09;;;;;;;5.57;5.17;;;16.80;99.90;;;;;;6141374;23;20456;-72
2023/05/12 08:53:39;;;;;;;5.60;5.20;;;17.00;99.90;;;;;;6129188;23;20440;-72
2023/05/12 08:56:08;;;;;;;5.87;5.47;;;17.10;99.90;;;;;;6146427;23;20476;-72
2023/05/12 08:58:36;;;;;;;4.60;4.30;;;17.20;99.90;;;;;;6136133;23;20437;-72
2023/05/12 09:01:05;;;;;;;4.87;4.57;;;17.40;99.90;;;;;;6134876;23;20452;-72
2023/05/12 09:03:33;;;;;;;5.30;4.90;;;17.60;99.90;;;;;;6141548;23;20457;-73
2023/05/12 09:06:01;;;;;;;5.10;4.67;;;17.90;99.90;;;;;;6146508;23;20444;-72
2023/05/12 09:08:30;;;;;;;4.80;4.40;;;17.90;99.90;;;;;;6137509;23;20796;-72
2023/05/12 09:11:00;;;;;;;4.90;4.60;;;18.10;99.90;;;;;;6139504;23;20535;-72
2023/05/12 09:13:37;;;;;;;4.90;4.60;;;18.10;99.90;;;;;;6146564;23;20436;-72
2023/05/12 09:16:05;;;;;;;4.43;4.13;;;18.20;99.90;;;;;;6138561;23;20429;-74
2023/05/12 09:18:47;;;;;;;4.83;4.53;;;18.20;99.90;;;;;;6125951;23;20487;-73
2023/05/12 09:21:14;;;;;;;4.13;3.73;;;18.20;99.90;;;;;;6128952;23;20467;-74
2023/05/12 09:23:51;;;;;;;3.50;3.30;;;18.30;99.90;;;;;;6130932;23;21027;-74
2023/05/12 09:26:21;;;;;;;3.77;3.57;;;18.20;99.90;;;;;;6135786;23;20470;-74
2023/05/12 09:28:48;;;;;;;5.73;5.33;;;17.90;99.90;;;;;;6137805;23;20428;-74
2023/05/12 09:31:16;;;;;;;5.40;5.00;;;18.20;99.90;;;;;;6147516;23;20447;-74
2023/05/12 09:33:43;;;;;;;4.10;3.80;;;18.10;99.90;;;;;;6143198;23;20425;-73
2023/05/12 09:36:10;;;;;;;3.63;3.33;;;18.00;99.90;;;;;;6125707;23;20887;-75
2023/05/12 09:38:37;;;;;;;4.00;3.70;;;18.00;99.90;;;;;;6127654;23;20828;-74
2023/05/12 09:41:05;;;;;;;3.67;3.30;;;18.10;99.90;;;;;;6130505;23;20464;-74
2023/05/12 09:43:33;;;;;;;4.70;3.63;;;17.90;99.90;;;;;;6147933;23;20468;-73
2023/05/12 09:46:05;;;;;;;4.60;3.00;;;17.90;99.90;;;;;;6124143;23;20430;-74
2023/05/12 09:48:32;;;;;;;2.90;2.70;;;17.80;99.90;;;;;;6136659;23;20437;-74
2023/05/12 09:50:59;;;;;;;3.67;3.47;;;17.90;99.90;;;;;;6148957;23;20441;-74
2023/05/12 09:53:26;;;;;;;4.00;3.80;;;18.10;99.90;;;;;;6148227;23;20428;-74
2023/05/12 09:55:54;;;;;;;4.10;3.70;;;18.40;99.90;;;;;;6146577;23;20439;-74
2023/05/12 09:58:21;;;;;;;3.73;3.53;;;18.70;99.90;;;;;;6132802;23;21071;-74
2023/05/12 10:00:52;;;;;;;4.37;4.07;;;19.00;99.90;;;;;;6138594;23;20467;-74
2023/05/12 10:03:23;;;;;;;4.40;4.10;;;19.20;99.90;;;;;;6139847;23;20462;-74
2023/05/12 10:05:57;;;;;;;4.10;3.80;;;19.30;99.90;;;;;;6109992;23;20540;-74
2023/05/12 10:08:27;;;;;;;4.63;4.33;;;19.40;99.90;;;;;;6116083;23;20438;-74
2023/05/12 10:10:56;;;;;;;4.60;4.30;;;19.40;99.90;;;;;;6117378;23;20444;-74
2023/05/12 10:13:25;;;;;;;4.10;3.80;;;19.30;99.90;;;;;;6125755;23;20485;-74
2023/05/12 10:15:56;;;;;;;3.60;3.40;;;19.10;99.90;;;;;;6139019;23;20520;-73
2023/05/12 10:18:23;;;;;;;3.80;3.50;;;19.00;99.90;;;;;;6135319;23;20422;-73
2023/05/12 10:20:52;;;;;;;3.97;3.57;;;18.80;99.90;;;;;;6139965;23;20448;-73
2023/05/12 10:23:20;;;;;;;3.60;3.40;;;18.50;99.90;;;;;;6114012;23;21018;-74
2023/05/12 10:25:47;;;;;;;3.40;3.20;;;18.10;99.90;;;;;;6116148;23;20444;-74
2023/05/12 10:28:15;;;;;;;3.57;3.27;;;17.90;99.90;;;;;;6112869;23;20854;-73
2023/05/12 10:30:43;;;;;;;3.53;3.23;;;17.60;99.90;;;;;;6109070;23;21344;-73
2023/05/12 10:33:11;;;;;;;2.90;2.70;;;17.20;99.90;;;;;;6119625;23;20512;-73
2023/05/12 10:35:39;;;;;;;3.17;2.97;;;17.20;99.90;;;;;;6145721;23;20425;-73
2023/05/12 10:38:07;;;;;;;4.17;3.87;;;16.90;99.90;;;;;;6147571;23;20467;-73
2023/05/12 10:40:34;;;;;;;3.67;3.40;;;16.60;99.90;;;;;;6155897;23;20935;-73
2023/05/12 10:43:02;;;;;;;3.40;3.20;;;16.50;99.90;;;;;;6145484;23;20460;-73
2023/05/12 10:45:34;;;;;;;3.10;2.90;;;16.50;99.90;;;;;;6141547;23;20476;-74
2023/05/12 10:48:07;;;;;;;3.00;2.80;;;16.50;99.90;;;;;;6127479;23;20520;-78
2023/05/12 10:50:35;;;;;;;2.90;2.70;;;16.70;99.90;;;;;;6132813;23;20540;-74
2023/05/12 10:53:02;;;;;;;2.30;2.20;;;17.00;99.90;;;;;;6144592;23;20429;-74
2023/05/12 10:55:34;;;;;;;1.50;1.40;;;17.00;99.90;;;;;;6148438;23;20490;-74
2023/05/12 10:58:06;;;;;;;2.40;1.60;;;17.30;99.90;;;;;;6146739;23;20432;-74
2023/05/12 11:00:43;;;;;;;1.40;1.30;;;17.50;99.90;;;;;;6146384;23;20452;-74
2023/05/12 11:03:15;;;;;;;1.40;1.30;;;17.70;99.90;;;;;;6129824;23;20861;-74
2023/05/12 11:05:45;;;;;;;1.47;1.37;;;17.90;99.90;;;;;;6142715;23;20635;-74
2023/05/12 11:08:13;;;;;;;2.63;2.40;;;17.90;99.90;;;;;;6139536;23;20924;-74
2023/05/12 11:10:42;;;;;;;2.60;2.30;;;17.30;99.90;;;;;;6144417;23;20457;-74
2023/05/12 11:13:09;;;;;;;3.03;2.83;;;17.10;99.90;;;;;;6145387;23;20805;-74
2023/05/12 11:15:37;;;;;;;3.03;2.83;;;17.20;99.90;;;;;;6146255;23;20436;-74
2023/05/12 11:18:05;;;;;;;3.20;3.00;;;17.20;99.90;;;;;;6126716;23;20476;-70
2023/05/12 11:20:32;;;;;;;4.90;3.13;;;17.20;99.90;;;;;;6118842;23;20452;-70
2023/05/12 11:23:00;;;;;;;3.50;3.30;;;17.30;99.90;;;;;;6145351;23;20470;-70
2023/05/12 11:25:28;;;;;;;3.13;2.87;;;17.40;99.90;;;;;;6122579;23;20556;-70
2023/05/12 11:27:55;;;;;;;2.63;2.43;;;17.30;99.90;;;;;;6114288;23;20432;-71
2023/05/12 11:30:22;;;;;;;3.40;3.20;;;17.60;99.90;;;;;;6135368;23;20968;-71
2023/05/12 11:33:00;;;;;;;4.23;3.93;;;17.50;99.90;;;;;;6132330;23;20949;-71
2023/05/12 11:35:31;;;;;;;4.07;3.77;;;17.70;99.90;;;;;;6143590;23;20453;-70
2023/05/12 11:38:01;;;;;;;5.40;4.90;;;17.60;99.90;;;;;;6140934;23;20952;-71
2023/05/12 11:40:28;;;;;;;4.23;3.93;;;17.60;99.90;;;;;;6140947;23;20460;-76
2023/05/12 11:42:55;;;;;;;4.63;4.33;;;17.50;99.90;;;;;;6145773;23;20539;-74
2023/05/12 11:45:25;;;;;;;3.20;3.00;;;17.50;99.90;;;;;;6111059;23;20430;-74
2023/05/12 11:47:53;;;;;;;2.90;2.70;;;17.40;99.90;;;;;;6123755;23;20435;-74
2023/05/12 11:50:21;;;;;;;3.43;3.13;;;17.30;99.90;;;;;;6137996;23;20465;-74
2023/05/12 11:52:48;;;;;;;3.37;3.17;;;17.10;99.90;;;;;;6115602;23;20527;-74
2023/05/12 11:55:23;;;;;;;5.10;3.17;;;17.00;99.90;;;;;;6131993;23;20433;-74
2023/05/12 11:58:01;;;;;;;2.60;2.40;;;17.10;99.90;;;;;;6152611;23;20432;-74
2023/05/12 12:00:31;;;;;;;3.63;3.43;;;17.20;99.90;;;;;;6122107;23;20826;-74
2023/05/12 12:03:08;;;;;;;3.60;3.30;;;17.30;99.90;;;;;;6113691;23;20467;-74
2023/05/12 12:05:36;;;;;;;3.37;3.17;;;17.20;99.90;;;;;;6117911;23;20452;-74
2023/05/12 12:08:08;;;;;;;2.40;2.20;;;17.50;99.90;;;;;;6109385;23;20505;-74
2023/05/12 12:10:36;;;;;;;2.33;2.23;;;17.60;99.90;;;;;;6118291;23;20564;-74
2023/05/12 12:13:04;;;;;;;1.80;1.70;;;17.70;99.90;;;;;;6131220;23;20795;-72
2023/05/12 12:15:31;;;;;;;2.60;2.40;;;17.90;99.90;;;;;;6131470;23;20781;-74
2023/05/12 12:17:58;;;;;;;4.43;3.00;;;18.00;99.90;;;;;;6119510;23;21179;-72
2023/05/12 12:20:25;;;;;;;14.80;4.27;;;18.10;99.90;;;;;;6137926;23;20483;-72
2023/05/12 12:22:53;;;;;;;3.20;2.90;;;18.10;99.90;;;;;;6140849;23;20462;-74
2023/05/12 12:25:21;;;;;;;3.40;3.20;;;18.30;99.90;;;;;;6143870;23;20468;-72
2023/05/12 12:27:51;;;;;;;4.50;4.20;;;18.10;99.90;;;;;;6149309;23;20936;-74
2023/05/12 12:30:19;;;;;;;4.30;4.10;;;18.20;99.90;;;;;;6145410;23;20472;-74
2023/05/12 12:32:46;;;;;;;4.57;4.13;;;18.20;99.90;;;;;;6127675;23;20441;-74
2023/05/12 12:35:13;;;;;;;4.77;4.47;;;18.20;99.90;;;;;;6124863;23;20447;-73
2023/05/12 12:37:41;;;;;;;5.93;4.60;;;18.30;99.90;;;;;;6104892;23;20490;-74
2023/05/12 12:40:09;;;;;;;4.60;4.20;;;18.20;99.90;;;;;;6123286;23;20463;-74
2023/05/12 12:42:38;;;;;;;4.93;4.63;;;18.30;99.90;;;;;;6118229;23;20444;-74
2023/05/12 12:45:08;;;;;;;4.77;4.47;;;18.50;99.90;;;;;;6093161;23;20502;-74